Time;durP1;ratioP1;P1;durP2;ratioP2;P2;SDS_P1;SDS_P2;PMS_P1;PMS_P2;Temp;Humidity;BMP_temperature;BMP_pressure;BME280_temperature;BME280_humidity;BME280_pressure;Samples;Min_cycle;Max_cycle;Signal;HPM_P1;HPM_P2
2023/07/31 00:00:14;;;;;;;9.60;4.77;;;;;;;23.01;78.95;99842.91;124841;1102;102196;-79
2023/07/31 00:03:05;;;;;;;6.27;4.40;;;;;;;22.98;79.26;99856.36;124881;1102;104419;-80
2023/07/31 00:05:37;;;;;;;6.17;4.40;;;;;;;23.01;79.21;99858.09;124867;1102;108370;-79
2023/07/31 00:08:08;;;;;;;7.90;4.50;;;;;;;23.04;79.55;99866.03;125027;1102;103139;-78
2023/07/31 00:10:39;;;;;;;7.35;4.40;;;;;;;23.03;79.45;99870.52;124918;1102;104334;-80
2023/07/31 00:13:10;;;;;;;8.93;4.33;;;;;;;23.01;79.37;99869.66;124881;1101;102128;-79
2023/07/31 00:15:42;;;;;;;5.80;4.00;;;;;;;22.98;79.65;99864.38;124729;1101;104243;-78
2023/07/31 00:18:14;;;;;;;6.27;4.37;;;;;;;22.83;79.89;99852.30;124532;1102;102243;-75
2023/07/31 00:20:45;;;;;;;20.17;6.23;;;;;;;22.69;80.25;99841.94;124392;1102;104242;-76
2023/07/31 00:23:16;;;;;;;10.47;4.87;;;;;;;22.61;79.88;99820.73;124339;1102;104296;-76
2023/07/31 00:25:48;;;;;;;12.17;4.97;;;;;;;22.42;80.72;99804.27;124367;1102;104137;-76
2023/07/31 00:28:19;;;;;;;10.53;5.30;;;;;;;22.35;81.28;99809.80;124416;1102;102451;-76
2023/07/31 00:30:50;;;;;;;14.73;5.20;;;;;;;22.30;81.27;99798.28;124367;1101;104559;-76
2023/07/31 00:33:21;;;;;;;7.10;4.93;;;;;;;22.13;81.26;99785.31;124353;1102;102191;-76
2023/07/31 00:35:52;;;;;;;9.10;5.47;;;;;;;21.95;82.62;99767.94;124502;1102;104185;-77
2023/07/31 00:38:24;;;;;;;9.13;4.90;;;;;;;21.82;83.00;99762.00;124476;1102;104210;-77
2023/07/31 00:40:55;;;;;;;13.37;5.80;;;;;;;21.82;83.08;99773.55;124403;1102;104249;-77
2023/07/31 00:43:27;;;;;;;11.07;5.77;;;;;;;21.88;82.78;99778.75;124394;1102;104438;-76
2023/07/31 00:45:58;;;;;;;9.70;5.47;;;;;;;21.93;82.76;99769.77;124328;1102;104235;-76
2023/07/31 00:48:30;;;;;;;10.37;5.87;;;;;;;21.96;82.62;99769.70;124319;1102;104189;-76
2023/07/31 00:51:02;;;;;;;14.13;6.37;;;;;;;22.01;83.43;99783.83;124418;1102;104152;-76
2023/07/31 00:53:33;;;;;;;11.57;5.70;;;;;;;22.07;83.54;99791.70;124361;1101;104245;-78
2023/07/31 00:56:06;;;;;;;8.93;5.67;;;;;;;22.08;83.23;99794.34;124416;1102;104367;-77
2023/07/31 00:58:38;;;;;;;9.30;5.72;;;;;;;22.06;84.31;99784.59;124435;1102;104255;-78
2023/07/31 01:01:09;;;;;;;10.40;5.83;;;;;;;22.07;84.51;99781.02;124371;1102;104248;-78
2023/07/31 01:03:40;;;;;;;11.03;5.87;;;;;;;22.08;84.22;99785.45;124347;1102;102079;-77
2023/07/31 01:06:21;;;;;;;8.50;5.47;;;;;;;22.06;83.94;99789.93;124486;1102;104720;-77
2023/07/31 01:09:00;;;;;;;9.60;5.77;;;;;;;22.07;84.51;99781.02;124728;1102;104360;-77
2023/07/31 01:11:36;;;;;;;10.87;5.90;;;;;;;22.07;84.63;99783.69;125865;1102;102222;-78
2023/07/31 01:14:07;;;;;;;12.43;6.00;;;;;;;22.07;85.28;99789.03;126290;1102;102122;-77
2023/07/31 01:16:38;;;;;;;11.20;6.03;;;;;;;22.09;85.33;99792.53;126171;1102;102058;-78
2023/07/31 01:19:12;;;;;;;10.10;5.73;;;;;;;22.10;85.16;99788.95;126168;1102;104092;-80
2023/07/31 01:22:08;;;;;;;10.33;5.90;;;;;;;22.13;85.17;99786.22;124910;1102;102079;-78
2023/07/31 01:24:50;;;;;;;8.80;5.97;;;;;;;22.16;84.96;99782.58;124517;1102;104550;-78
2023/07/31 01:27:25;;;;;;;10.80;5.60;;;;;;;22.19;85.43;99783.40;124563;1102;111601;-78
2023/07/31 01:30:01;;;;;;;9.13;5.87;;;;;;;22.21;85.60;99786.91;124569;1102;104255;-78
2023/07/31 01:32:33;;;;;;;10.90;5.93;;;;;;;22.25;85.34;99783.26;124546;1102;102028;-77
2023/07/31 01:35:05;;;;;;;10.60;6.00;;;;;;;22.29;85.82;99776.03;124457;1102;104188;-78
2023/07/31 01:37:37;;;;;;;9.40;5.90;;;;;;;22.31;85.60;99768.02;124471;1102;104225;-79
2023/07/31 01:40:10;;;;;;;8.67;5.40;;;;;;;22.27;86.27;99775.20;124437;1102;102340;-77
2023/07/31 01:42:41;;;;;;;9.35;6.00;;;;;;;22.23;86.04;99782.39;124488;1102;104181;-78
2023/07/31 01:45:14;;;;;;;10.00;5.60;;;;;;;22.24;86.56;99800.20;124442;1102;102201;-77
2023/07/31 01:47:46;;;;;;;9.33;5.97;;;;;;;22.21;86.19;99799.40;124349;1102;104261;-79
2023/07/31 01:50:17;;;;;;;8.87;5.53;;;;;;;22.10;86.30;99799.64;124267;1102;101928;-77
2023/07/31 01:52:49;;;;;;;16.13;7.00;;;;;;;22.07;86.81;99800.58;124390;1102;104251;-75
2023/07/31 01:55:20;;;;;;;12.00;6.57;;;;;;;22.10;87.02;99820.15;124322;1102;104204;-75
2023/07/31 01:57:52;;;;;;;11.17;6.63;;;;;;;22.11;86.79;99821.89;124258;1102;104182;-75
2023/07/31 02:00:23;;;;;;;14.07;6.57;;;;;;;22.10;87.18;99826.36;124261;1102;104357;-76
2023/07/31 02:02:54;;;;;;;13.73;6.60;;;;;;;22.10;87.79;99823.69;124350;1102;104256;-75
2023/07/31 02:05:26;;;;;;;12.37;6.40;;;;;;;22.07;87.24;99826.43;124288;1102;104140;-75
2023/07/31 02:07:57;;;;;;;10.07;6.20;;;;;;;22.01;87.35;99824.76;124293;1102;102653;-77
2023/07/31 02:10:32;;;;;;;11.25;5.75;;;;;;;21.87;87.44;99810.84;124436;1102;104265;-77
2023/07/31 02:13:04;;;;;;;21.73;7.63;;;;;;;21.83;88.12;99826.06;124263;1102;104425;-75
2023/07/31 02:15:36;;;;;;;13.40;6.80;;;;;;;21.74;88.46;99839.60;124300;1102;102162;-75
2023/07/31 02:18:07;;;;;;;12.13;6.47;;;;;;;21.71;88.66;99836.99;124349;1102;104278;-75
2023/07/31 02:20:38;;;;;;;11.27;5.93;;;;;;;21.68;88.28;99834.39;124330;1102;104283;-76
2023/07/31 02:23:10;;;;;;;14.60;6.87;;;;;;;21.67;89.53;99825.47;124342;1102;104272;-75
2023/07/31 02:25:41;;;;;;;13.07;6.83;;;;;;;21.76;89.18;99826.22;124293;1102;104082;-75
2023/07/31 02:28:12;;;;;;;15.43;6.90;;;;;;;21.71;89.03;99827.19;124307;1102;104169;-75
2023/07/31 02:30:46;;;;;;;12.33;6.47;;;;;;;21.63;89.03;99825.56;124349;1102;104248;-76
2023/07/31 02:33:18;;;;;;;10.13;6.00;;;;;;;21.52;89.15;99812.47;124329;1102;104245;-76
2023/07/31 02:35:51;;;;;;;11.50;6.28;;;;;;;21.50;89.58;99819.61;124335;1102;103795;-75
2023/07/31 02:38:22;;;;;;;14.67;6.63;;;;;;;21.54;89.19;99826.66;124232;1102;104254;-75
2023/07/31 02:40:54;;;;;;;10.37;6.20;;;;;;;21.56;90.41;99834.63;124281;1101;104172;-76
2023/07/31 02:43:25;;;;;;;14.63;6.70;;;;;;;21.54;90.54;99827.52;124332;1102;104275;-76
2023/07/31 02:45:56;;;;;;;12.90;7.00;;;;;;;21.61;90.90;99832.73;124097;1102;104295;-76
2023/07/31 02:48:28;;;;;;;16.00;6.97;;;;;;;21.65;90.90;99821.97;124324;1102;104233;-76
2023/07/31 02:51:00;;;;;;;13.57;7.10;;;;;;;21.62;90.94;99814.02;124283;1102;104373;-75
2023/07/31 02:53:31;;;;;;;13.70;7.33;;;;;;;21.60;90.32;99833.64;124311;1102;102017;-75
2023/07/31 02:56:02;;;;;;;14.67;6.87;;;;;;;21.62;91.23;99839.84;124383;1102;101903;-77
2023/07/31 02:58:33;;;;;;;11.23;6.80;;;;;;;21.63;91.34;99844.26;124327;1102;102793;-77
2023/07/31 03:01:05;;;;;;;11.93;7.07;;;;;;;21.63;92.37;99846.92;124347;1102;102014;-76
2023/07/31 03:03:36;;;;;;;13.37;7.67;;;;;;;21.62;91.68;99846.05;124338;1102;104354;-76
2023/07/31 03:06:08;;;;;;;13.60;6.80;;;;;;;21.63;91.66;99854.94;124353;1102;102205;-77
2023/07/31 03:08:39;;;;;;;14.77;7.33;;;;;;;21.67;91.20;99868.19;124290;1102;101908;-77
2023/07/31 03:11:10;;;;;;;13.30;6.97;;;;;;;21.68;92.41;99866.42;124427;1102;104213;-77
2023/07/31 03:13:42;;;;;;;11.93;7.00;;;;;;;21.68;91.45;99866.42;124393;1101;101928;-77
2023/07/31 03:16:13;;;;;;;13.77;7.20;;;;;;;21.67;92.12;99869.99;124350;1102;104258;-78
2023/07/31 03:18:44;;;;;;;13.20;8.03;;;;;;;21.67;91.95;99865.52;124128;1102;105540;-78
2023/07/31 03:21:17;;;;;;;14.97;8.10;;;;;;;21.67;92.40;99864.66;124456;1102;104214;-78
2023/07/31 03:23:48;;;;;;;16.97;8.90;;;;;;;21.66;92.13;99865.55;124389;1102;104293;-78
2023/07/31 03:26:19;;;;;;;15.53;8.73;;;;;;;21.66;92.63;99853.11;124549;1102;102038;-78
2023/07/31 03:28:50;;;;;;;12.45;7.90;;;;;;;21.64;92.93;99848.70;124399;1102;101901;-80
2023/07/31 03:31:22;;;;;;;13.37;8.73;;;;;;;21.64;92.20;99854.91;124435;1102;104294;-78
2023/07/31 03:33:53;;;;;;;12.20;7.37;;;;;;;21.65;92.52;99839.78;124361;1102;102022;-78
2023/07/31 03:36:25;;;;;;;15.10;7.93;;;;;;;21.65;92.49;99843.33;124500;1102;104243;-78
2023/07/31 03:38:57;;;;;;;10.07;6.77;;;;;;;21.67;92.57;99832.61;124512;1102;104230;-78
2023/07/31 03:41:28;;;;;;;11.60;6.33;;;;;;;21.69;92.66;99830.78;124401;1102;102355;-79
2023/07/31 03:43:59;;;;;;;16.00;7.27;;;;;;;21.71;92.54;99821.84;124483;1102;101913;-76
2023/07/31 03:46:30;;;;;;;15.07;7.53;;;;;;;21.76;92.71;99818.20;124458;1102;104182;-75
2023/07/31 03:49:01;;;;;;;11.03;6.73;;;;;;;21.77;92.43;99811.93;124423;1102;104227;-77
2023/07/31 03:51:33;;;;;;;11.90;6.80;;;;;;;21.80;93.00;99818.11;124227;1102;101990;-75
2023/07/31 03:54:04;;;;;;;12.80;6.67;;;;;;;21.81;92.96;99809.16;124316;1102;104504;-75
2023/07/31 03:56:35;;;;;;;11.63;6.70;;;;;;;21.80;93.01;99812.77;124382;1102;104200;-77
2023/07/31 03:59:06;;;;;;;10.07;6.37;;;;;;;21.81;93.16;99817.17;124341;1102;101878;-76
2023/07/31 04:01:38;;;;;;;9.43;6.00;;;;;;;21.83;93.11;99820.72;124453;1102;102233;-77
2023/07/31 04:04:09;;;;;;;10.77;6.90;;;;;;;21.86;92.84;99820.66;124419;1102;104344;-76
2023/07/31 04:06:41;;;;;;;15.53;6.77;;;;;;;21.89;93.36;99823.25;124390;1102;104175;-77
2023/07/31 04:09:12;;;;;;;11.33;6.60;;;;;;;21.92;93.76;99821.42;124341;1102;105563;-76
2023/07/31 04:11:43;;;;;;;10.83;6.60;;;;;;;21.97;93.17;99836.45;124395;1102;101858;-76
2023/07/31 04:14:14;;;;;;;10.07;5.87;;;;;;;22.01;93.17;99839.92;124518;1102;101981;-77
2023/07/31 04:16:46;;;;;;;11.40;6.43;;;;;;;22.02;93.38;99841.69;124437;1102;104249;-76
2023/07/31 04:19:17;;;;;;;13.00;6.47;;;;;;;22.03;93.74;99847.00;124307;1102;104326;-83
2023/07/31 04:21:48;;;;;;;11.60;7.07;;;;;;;22.03;93.55;99847.00;124493;1102;104179;-77
2023/07/31 04:24:24;;;;;;;11.80;7.07;;;;;;;22.04;93.47;99838.05;124556;1102;101871;-76
2023/07/31 04:26:56;;;;;;;11.43;6.70;;;;;;;22.10;94.09;99857.55;124472;1102;104274;-76
2023/07/31 04:29:27;;;;;;;10.90;6.65;;;;;;;22.12;93.88;99856.58;124580;1102;104230;-79
2023/07/31 04:31:58;;;;;;;10.60;6.83;;;;;;;22.11;93.77;99860.19;124566;1102;104677;-77
2023/07/31 04:34:29;;;;;;;12.37;7.20;;;;;;;22.07;93.47;99858.48;124652;1102;104237;-82
2023/07/31 04:37:00;;;;;;;12.47;7.13;;;;;;;22.08;93.53;99863.80;124521;1102;104297;-77
2023/07/31 04:39:32;;;;;;;12.33;7.07;;;;;;;22.09;93.51;99872.68;124520;1102;104204;-77
2023/07/31 04:42:03;;;;;;;12.47;7.03;;;;;;;22.10;94.45;99873.58;124546;1102;104238;-78
2023/07/31 04:44:34;;;;;;;12.20;7.10;;;;;;;22.14;94.05;99884.13;124440;1102;102518;-78
2023/07/31 04:47:06;;;;;;;10.27;6.13;;;;;;;22.13;93.68;99886.84;124638;1101;104252;-82
2023/07/31 04:49:37;;;;;;;12.30;6.33;;;;;;;22.12;94.09;99893.12;124681;1102;104215;-80
2023/07/31 04:52:09;;;;;;;11.40;6.50;;;;;;;22.12;94.46;99883.30;124953;1102;104281;-80
2023/07/31 04:54:40;;;;;;;12.93;7.43;;;;;;;22.16;93.95;99884.10;124759;1102;104201;-78
2023/07/31 04:57:11;;;;;;;11.33;7.20;;;;;;;22.20;94.31;99892.02;124716;1102;104191;-81
2023/07/31 04:59:43;;;;;;;11.60;6.70;;;;;;;22.23;93.65;99891.08;124719;1102;103515;-81
2023/07/31 05:02:18;;;;;;;10.57;6.73;;;;;;;22.23;93.84;99891.95;125000;1102;104073;-81
2023/07/31 05:04:49;;;;;;;13.83;7.10;;;;;;;22.25;94.41;99895.49;124804;1101;104214;-80
2023/07/31 05:07:23;;;;;;;10.37;6.83;;;;;;;22.36;94.57;99889.94;124911;1102;104172;-82
2023/07/31 05:09:54;;;;;;;14.53;7.00;;;;;;;22.46;94.60;99882.59;125017;1102;104357;-81
2023/07/31 05:12:25;;;;;;;12.50;6.60;;;;;;;22.53;93.78;99884.21;124968;1102;104249;-81
2023/07/31 05:14:58;;;;;;;11.03;6.87;;;;;;;22.57;94.57;99891.23;124926;1102;104223;-77
2023/07/31 05:17:38;;;;;;;12.70;6.37;;;;;;;22.64;93.80;99888.41;124997;1102;104249;-81
2023/07/31 05:20:14;;;;;;;13.80;6.63;;;;;;;22.67;94.42;99899.03;124892;1102;103221;-82
2023/07/31 05:22:47;;;;;;;10.50;5.97;;;;;;;22.72;94.29;99890.00;125745;1102;101897;-82
2023/07/31 05:25:29;;;;;;;11.78;6.35;;;;;;;22.76;94.07;99888.98;126114;1102;102208;-81
2023/07/31 05:28:04;;;;;;;11.80;6.33;;;;;;;22.79;94.15;99890.72;125209;1102;102064;-80
2023/07/31 05:30:38;;;;;;;13.43;7.30;;;;;;;22.84;94.06;99891.47;125066;1102;101881;-78
2023/07/31 05:33:12;;;;;;;10.97;6.30;;;;;;;22.88;93.99;99884.28;125714;1102;101957;-79
2023/07/31 05:36:15;;;;;;;8.60;5.90;;;;;;;22.91;93.94;99889.55;125205;1102;101865;-80
2023/07/31 05:38:53;;;;;;;10.00;6.25;;;;;;;22.88;94.07;99884.28;125256;1102;104153;-83
2023/07/31 05:41:40;;;;;;;7.97;5.80;;;;;;;22.95;93.91;99880.52;125029;1102;104236;-79
2023/07/31 05:44:19;;;;;;;7.70;5.67;;;;;;;22.96;94.40;99893.84;125166;1102;104214;-76
2023/07/31 05:47:08;;;;;;;6.83;5.27;;;;;;;22.97;94.25;99892.08;125542;1102;103706;-82
2023/07/31 05:50:13;;;;;;;11.07;6.17;;;;;;;22.99;94.25;99887.55;126243;1102;101963;-85
2023/07/31 05:52:51;;;;;;;9.37;5.90;;;;;;;23.02;93.86;99891.96;126102;1102;104204;-83
2023/07/31 05:55:27;;;;;;;9.80;5.90;;;;;;;23.03;93.95;99891.92;125715;1102;104331;-83
2023/07/31 05:58:04;;;;;;;10.50;6.10;;;;;;;23.02;93.89;99887.48;125859;1102;101856;-81
2023/07/31 06:00:37;;;;;;;8.27;5.80;;;;;;;23.01;93.92;99898.22;126173;1101;102308;-79
2023/07/31 06:03:15;;;;;;;9.13;5.65;;;;;;;22.96;94.04;99896.52;126212;1101;104188;-78
2023/07/31 06:06:02;;;;;;;9.30;6.10;;;;;;;22.93;93.86;99909.97;125284;1102;101974;-78
2023/07/31 06:08:36;;;;;;;14.27;6.17;;;;;;;22.97;94.19;99911.67;125172;1102;104348;-78
2023/07/31 06:11:10;;;;;;;10.97;6.27;;;;;;;23.04;94.23;99908.84;124558;1102;102051;-75
2023/07/31 06:13:44;;;;;;;10.15;6.05;;;;;;;23.08;94.21;99913.21;125438;1102;101922;-77
2023/07/31 06:16:24;;;;;;;8.07;6.07;;;;;;;23.09;93.87;99915.88;124677;1102;104387;-77
2023/07/31 06:19:12;;;;;;;11.17;6.10;;;;;;;23.13;94.02;99924.70;126327;1102;104204;-77
2023/07/31 06:21:50;;;;;;;9.50;6.27;;;;;;;23.12;93.97;99930.95;126166;1101;104238;-76
2023/07/31 06:24:29;;;;;;;9.67;6.20;;;;;;;23.11;94.05;99932.77;125942;1101;101804;-81
2023/07/31 06:27:06;;;;;;;10.18;6.00;;;;;;;23.08;94.01;99929.27;124804;1102;102455;-78
2023/07/31 06:29:40;;;;;;;11.60;6.80;;;;;;;23.02;93.97;99940.98;125249;1105;101882;-77
2023/07/31 06:32:28;;;;;;;10.23;6.62;;;;;;;23.00;93.92;99939.25;124764;1100;101829;-81
2023/07/31 06:35:21;;;;;;;16.27;6.70;;;;;;;22.98;93.92;99936.61;127156;1101;101792;-79
2023/07/31 06:38:14;;;;;;;10.90;6.80;;;;;;;22.98;94.31;99940.19;125413;1102;104195;-80
2023/07/31 06:40:53;;;;;;;11.40;6.27;;;;;;;22.96;94.33;99943.81;126288;1101;102370;-78
2023/07/31 06:43:55;;;;;;;12.67;7.23;;;;;;;22.97;94.46;99942.91;124641;1102;107249;-76
2023/07/31 06:46:31;;;;;;;16.87;7.50;;;;;;;22.86;93.75;99942.26;124543;1102;104182;-76
2023/07/31 06:49:07;;;;;;;16.43;8.30;;;;;;;22.78;93.55;99937.09;124692;1102;104319;-77
2023/07/31 06:51:39;;;;;;;12.60;6.27;;;;;;;22.70;94.21;99939.08;124565;1102;101879;-80
2023/07/31 06:54:17;;;;;;;10.23;6.23;;;;;;;22.66;94.29;99946.30;126435;1102;118710;-83
2023/07/31 06:56:51;;;;;;;14.40;5.27;;;;;;;22.63;94.51;99948.17;126143;1101;101782;-80
2023/07/31 06:59:28;;;;;;;8.27;5.20;;;;;;;22.58;94.32;99946.47;125188;1102;101827;-84
2023/07/31 07:02:18;;;;;;;10.00;5.60;;;;;;;22.57;93.61;99952.72;126322;1101;101616;-81
2023/07/31 07:04:58;;;;;;;9.90;5.67;;;;;;;22.53;94.21;99952.82;127003;1101;101784;-83
2023/07/31 07:07:42;;;;;;;12.97;5.57;;;;;;;22.45;93.62;99952.98;125758;1102;104268;-82
2023/07/31 07:10:26;;;;;;;9.40;5.77;;;;;;;22.40;94.04;99955.77;126683;1101;101881;-81
2023/07/31 07:12:59;;;;;;;10.80;5.28;;;;;;;22.32;94.27;99956.86;124832;1102;102011;-81
2023/07/31 07:15:34;;;;;;;10.57;5.47;;;;;;;22.26;93.60;99965.84;125701;1102;104178;-85
2023/07/31 07:18:13;;;;;;;10.50;5.97;;;;;;;22.19;94.20;99959.75;126448;1101;101610;-87
2023/07/31 07:21:21;;;;;;;12.30;6.30;;;;;;;22.14;94.39;99966.96;126907;1101;101892;-82
2023/07/31 07:24:41;;;;;;;13.50;6.03;;;;;;;22.08;94.89;99965.31;126410;1102;101788;-84
2023/07/31 07:27:32;;;;;;;12.33;5.97;;;;;;;22.04;94.18;99966.27;125190;1103;101973;-80
2023/07/31 07:30:05;;;;;;;12.60;5.80;;;;;;;22.03;94.61;99964.54;125379;1102;102196;-78
2023/07/31 07:32:48;;;;;;;12.67;6.27;;;;;;;22.00;94.59;99971.71;126199;1101;102157;-81
2023/07/31 07:35:24;;;;;;;10.50;6.07;;;;;;;21.93;94.64;99970.96;125888;1102;102419;-81
2023/07/31 07:38:00;;;;;;;14.83;6.77;;;;;;;21.89;94.69;99975.48;125246;1103;104291;-76
2023/07/31 07:40:54;;;;;;;12.50;5.80;;;;;;;21.87;94.98;99974.62;125801;1102;102202;-81
2023/07/31 07:46:25;;;;;;;10.47;5.90;;;;;;;22.00;95.60;99969.94;125623;1101;104229;-82
2023/07/31 07:49:05;;;;;;;11.80;5.43;;;;;;;22.02;95.18;99972.58;125833;1102;117808;-82
2023/07/31 07:51:42;;;;;;;9.67;5.07;;;;;;;22.05;95.30;99975.19;126949;1101;101910;-83
2023/07/31 07:54:14;;;;;;;9.67;5.17;;;;;;;22.05;95.51;99976.06;125823;1102;104191;-84
2023/07/31 07:56:47;;;;;;;10.53;5.25;;;;;;;22.05;95.45;99976.06;125395;1102;102057;-79
2023/07/31 07:59:18;;;;;;;11.20;5.40;;;;;;;22.08;95.33;99978.67;124780;1102;102388;-80
2023/07/31 08:01:49;;;;;;;10.83;4.90;;;;;;;22.10;95.69;99981.31;124659;1102;103766;-78
2023/07/31 08:04:25;;;;;;;13.67;5.60;;;;;;;22.12;95.77;99974.14;125023;1102;104233;-79
2023/07/31 08:06:57;;;;;;;12.50;5.30;;;;;;;22.19;95.70;99977.55;124796;1102;104095;-79
2023/07/31 08:09:28;;;;;;;10.87;5.10;;;;;;;22.21;95.49;99971.28;125267;1102;102028;-81
2023/07/31 08:12:03;;;;;;;9.40;5.07;;;;;;;22.21;95.73;99973.95;124906;1102;104226;-80
2023/07/31 08:14:36;;;;;;;14.17;5.77;;;;;;;22.24;96.42;99973.89;125507;1102;102007;-78
2023/07/31 08:17:10;;;;;;;15.48;5.72;;;;;;;22.23;96.04;99971.25;124678;1102;104255;-76
2023/07/31 08:19:49;;;;;;;13.73;5.40;;;;;;;22.23;96.17;99968.58;124611;1103;102413;-76
2023/07/31 08:22:22;;;;;;;11.97;5.83;;;;;;;22.25;96.14;99970.31;124712;1102;104159;-78
2023/07/31 08:24:57;;;;;;;13.70;5.60;;;;;;;22.26;95.86;99974.73;124544;1102;104214;-81
2023/07/31 08:27:29;;;;;;;13.30;5.77;;;;;;;22.24;96.09;99976.56;124340;1102;104246;-77
2023/07/31 08:30:07;;;;;;;11.37;6.03;;;;;;;22.26;96.28;99968.52;124671;1102;107505;-76
2023/07/31 08:32:43;;;;;;;12.70;5.85;;;;;;;22.28;96.28;99969.35;124543;1102;104265;-77
2023/07/31 08:35:28;;;;;;;14.87;6.17;;;;;;;22.30;96.62;99966.64;124976;1102;104633;-79
2023/07/31 08:38:13;;;;;;;8.93;5.60;;;;;;;22.36;97.14;99974.56;124755;1101;104224;-78
2023/07/31 08:40:44;;;;;;;12.53;5.77;;;;;;;22.44;96.22;99977.98;125254;1101;119880;-74
2023/07/31 08:43:26;;;;;;;13.87;5.87;;;;;;;22.49;96.67;99975.21;124359;1102;104179;-75
2023/07/31 08:45:59;;;;;;;11.87;5.77;;;;;;;22.63;97.26;99974.91;124786;1102;101976;-78
2023/07/31 08:48:34;;;;;;;10.97;5.93;;;;;;;22.75;96.46;99970.16;125336;1102;101868;-76
2023/07/31 08:51:07;;;;;;;12.50;6.07;;;;;;;22.89;96.86;99972.52;124761;1102;102676;-76
2023/07/31 08:53:41;;;;;;;13.30;6.10;;;;;;;22.94;96.67;99975.95;125223;1102;102371;-80
2023/07/31 08:56:17;;;;;;;10.30;5.83;;;;;;;23.00;96.89;99974.94;126265;1101;104208;-80
2023/07/31 08:58:47;;;;;;;;;;;;;;;23.03;95.83;99979.31;126343;1101;102201;-77
2023/07/31 09:01:19;;;;;;;12.33;5.90;;;;;;;23.07;96.52;99981.88;127073;1102;102545;-80
2023/07/31 09:03:55;;;;;;;13.70;6.63;;;;;;;23.15;96.94;99979.95;126313;1101;101528;-76
2023/07/31 09:06:29;;;;;;;10.20;6.13;;;;;;;23.28;97.20;99976.94;126474;1102;102347;-77
2023/07/31 09:09:03;;;;;;;12.93;6.27;;;;;;;23.41;96.92;99980.22;126951;1101;101509;-78
2023/07/31 09:11:37;;;;;;;12.63;5.83;;;;;;;23.53;96.92;99984.36;125000;1102;102030;-76
2023/07/31 09:14:09;;;;;;;12.27;5.90;;;;;;;23.66;97.05;99985.81;125946;1101;104257;-77
2023/07/31 09:16:55;;;;;;;10.50;5.90;;;;;;;23.78;97.07;99980.13;125643;1102;101824;-78
2023/07/31 09:19:34;;;;;;;18.83;6.70;;;;;;;23.89;96.79;99982.55;124572;1102;104325;-77
2023/07/31 09:22:06;;;;;;;13.50;6.57;;;;;;;23.96;96.18;99976.08;125700;1101;104239;-75
2023/07/31 09:24:37;;;;;;;15.10;7.00;;;;;;;24.03;96.59;99979.48;124620;1102;102128;-77
2023/07/31 09:27:09;;;;;;;11.00;6.33;;;;;;;24.13;96.23;99978.28;124963;1102;104226;-82
2023/07/31 09:29:41;;;;;;;10.47;6.20;;;;;;;24.17;95.99;99965.70;126121;1101;102281;-82
2023/07/31 09:32:26;;;;;;;12.90;6.00;;;;;;;24.23;95.97;99969.06;126061;1102;102017;-80
2023/07/31 09:35:19;;;;;;;11.37;5.70;;;;;;;24.29;95.80;99976.03;126454;1102;101861;-81
2023/07/31 09:38:00;;;;;;;9.20;6.00;;;;;;;24.40;95.63;99973.94;124670;1102;102115;-80
2023/07/31 09:40:36;;;;;;;6.83;5.20;;;;;;;24.52;95.56;99974.48;125413;1101;101792;-77
2023/07/31 09:43:16;;;;;;;9.13;5.60;;;;;;;24.58;95.56;99974.33;124346;1102;102010;-76
2023/07/31 09:45:56;;;;;;;8.20;5.30;;;;;;;24.60;94.91;99977.83;124389;1102;104248;-76
2023/07/31 09:48:32;;;;;;;9.97;5.90;;;;;;;24.48;94.08;99984.44;124463;1102;104181;-75
2023/07/31 09:51:08;;;;;;;9.67;5.60;;;;;;;24.38;94.35;99978.44;124266;1102;104233;-76
2023/07/31 09:53:39;;;;;;;9.60;5.87;;;;;;;24.43;94.41;99990.84;125994;1101;104181;-78
2023/07/31 09:56:11;;;;;;;7.60;5.30;;;;;;;24.49;94.54;99990.66;126853;1101;101798;-77
2023/07/31 09:58:44;;;;;;;11.33;5.60;;;;;;;24.57;94.53;99985.97;124635;1102;104303;-79
2023/07/31 10:01:19;;;;;;;10.07;6.27;;;;;;;24.57;94.42;99996.70;126014;1102;101919;-80
2023/07/31 10:03:54;;;;;;;9.80;5.90;;;;;;;24.57;94.20;99988.66;125286;1102;102264;-81
2023/07/31 10:06:27;;;;;;;9.93;5.47;;;;;;;24.52;94.36;99991.44;125294;1102;101794;-83
2023/07/31 10:09:03;;;;;;;9.00;5.87;;;;;;;24.51;94.24;99994.17;126288;1101;101696;-83
2023/07/31 10:11:51;;;;;;;10.60;6.10;;;;;;;24.41;93.83;99994.44;125365;1102;102042;-89
2023/07/31 10:14:25;;;;;;;9.37;6.00;;;;;;;24.27;94.31;99999.33;124896;1102;102332;-88
2023/07/31 10:17:02;;;;;;;10.80;6.60;;;;;;;24.17;94.19;100004.09;125392;1102;101779;-81
2023/07/31 10:19:35;;;;;;;;;;;;;;;24.04;93.47;100006.23;126753;1101;101877;-82
2023/07/31 10:22:24;;;;;;;8.53;5.53;;;;;;;23.91;93.78;100004.80;125570;1102;104300;-84
2023/07/31 10:25:00;;;;;;;8.37;5.40;;;;;;;23.85;94.08;99997.80;126243;1101;104137;-84
2023/07/31 10:27:35;;;;;;;8.67;5.90;;;;;;;23.85;94.03;100004.97;125953;1101;102236;-89
2023/07/31 10:30:13;;;;;;;9.93;6.23;;;;;;;23.99;94.57;100007.28;125423;1102;104188;-81
2023/07/31 10:32:49;;;;;;;8.70;5.50;;;;;;;24.14;94.43;100014.02;125163;1102;104312;-80
2023/07/31 10:35:24;;;;;;;7.60;4.83;;;;;;;24.22;94.14;100004.83;125320;1102;104169;-83
2023/07/31 10:38:15;;;;;;;7.30;4.83;;;;;;;24.32;94.02;100007.24;125288;1102;104201;-82
2023/07/31 10:40:52;;;;;;;7.80;4.87;;;;;;;24.42;93.88;100000.70;125361;1102;104133;-84
2023/07/31 10:43:43;;;;;;;7.43;4.60;;;;;;;24.55;94.27;99987.80;126104;1102;101827;-80
2023/07/31 10:46:19;;;;;;;7.33;4.47;;;;;;;24.63;93.90;99999.20;125732;1102;101794;-80
2023/07/31 10:48:58;;;;;;;;;;;;;;;24.61;92.97;99987.64;126019;1101;104237;-90
2023/07/31 10:51:39;;;;;;;7.00;4.80;;;;;;;24.57;93.75;99985.97;125731;1101;102125;-82
2023/07/31 10:54:21;;;;;;;7.27;4.63;;;;;;;24.56;93.88;99989.56;125449;1102;108289;-84
2023/07/31 10:56:59;;;;;;;6.80;4.90;;;;;;;24.64;93.95;99986.69;125578;1102;101908;-78
2023/07/31 10:59:40;;;;;;;7.47;4.50;;;;;;;24.69;93.83;99980.23;124768;1102;104230;-79
2023/07/31 11:02:37;;;;;;;8.67;4.73;;;;;;;24.68;93.46;99988.33;126172;1102;101797;-84
2023/07/31 11:08:17;;;;;;;7.73;4.90;;;;;;;24.58;93.25;99982.38;127339;1101;101619;-87
2023/07/31 11:10:56;;;;;;;7.30;4.80;;;;;;;24.61;93.54;99979.60;125947;1102;104203;-86
2023/07/31 11:13:45;;;;;;;8.80;4.47;;;;;;;24.60;93.11;99983.20;125815;1102;102035;-88
2023/07/31 11:16:31;;;;;;;5.70;4.43;;;;;;;24.54;92.91;99972.63;125444;1102;102222;-84
2023/07/31 11:19:11;;;;;;;7.50;4.33;;;;;;;24.52;92.83;99979.84;125735;1102;102302;-84
2023/07/31 11:28:39;;;;;;;6.07;4.10;;;;;;;24.52;92.80;99972.67;126394;1102;101791;-85
2023/07/31 11:31:54;;;;;;;7.83;4.03;;;;;;;24.46;92.77;99967.48;125695;1102;104224;-86
2023/07/31 11:34:55;;;;;;;5.15;4.30;;;;;;;24.49;92.54;99964.72;126376;1102;102241;-82
2023/07/31 11:37:48;;;;;;;9.03;4.80;;;;;;;24.57;92.31;99965.42;126187;1102;101554;-86
2023/07/31 11:40:29;;;;;;;8.57;4.67;;;;;;;24.64;92.61;99966.09;125557;1102;101766;-82
2023/07/31 11:43:17;;;;;;;9.57;4.63;;;;;;;24.67;91.95;99959.77;125634;1102;102011;-82
2023/07/31 11:46:02;;;;;;;6.50;4.55;;;;;;;24.71;91.81;99956.05;126301;1102;101720;-83
2023/07/31 11:48:46;;;;;;;6.23;4.30;;;;;;;24.70;91.62;99948.95;126244;1101;102012;-81
2023/07/31 11:51:30;;;;;;;6.83;4.50;;;;;;;24.66;92.13;99958.88;125778;1105;101839;-84
2023/07/31 11:54:12;;;;;;;6.77;4.80;;;;;;;24.66;91.70;99963.37;125527;1102;104291;-81
2023/07/31 11:56:51;;;;;;;5.70;4.30;;;;;;;24.68;92.10;99957.04;126268;1101;104146;-84
2023/07/31 11:59:43;;;;;;;7.63;4.00;;;;;;;24.66;91.54;99958.00;126142;1102;101668;-86
2023/07/31 12:02:31;;;;;;;8.33;5.00;;;;;;;24.64;91.94;99957.19;125886;1102;103975;-85
2023/07/31 12:08:13;;;;;;;5.22;4.30;;;;;;;24.48;91.40;99954.03;126747;1101;101748;-84